Time;durP1;ratioP1;P1;durP2;ratioP2;P2;SDS_P1;SDS_P2;PMS_P1;PMS_P2;Temp;Humidity;BMP_temperature;BMP_pressure;BME280_temperature;BME280_humidity;BME280_pressure;Samples;Min_cycle;Max_cycle;Signal;HPM_P1;HPM_P2
2022/10/05 00:01:28;;;;;;;6.55;2.22;;;;;;;;;;5055457;28;20425;-84
2022/10/05 00:04:05;;;;;;;2.15;1.70;;;;;;;;;;5073146;28;20136;-88
2022/10/05 00:06:33;;;;;;;3.33;2.08;;;;;;;;;;5055585;28;20523;-85
2022/10/05 00:09:00;;;;;;;4.72;1.80;;;;;;;;;;5054765;28;20052;-86
2022/10/05 00:11:27;;;;;;;2.30;1.85;;;;;;;;;;5055410;28;20048;-86
2022/10/05 00:13:57;;;;;;;5.72;2.13;;;;;;;;;;5055667;28;20049;-85
2022/10/05 00:16:24;;;;;;;2.53;2.10;;;;;;;;;;5055570;28;20048;-85
2022/10/05 00:18:53;;;;;;;2.47;1.90;;;;;;;;;;5055338;28;20489;-85
2022/10/05 00:21:21;;;;;;;4.35;2.00;;;;;;;;;;5054875;28;20057;-86
2022/10/05 00:23:49;;;;;;;5.13;2.85;;;;;;;;;;5073065;28;20045;-84
2022/10/05 00:26:21;;;;;;;5.93;2.20;;;;;;;;;;5055390;28;20496;-85
2022/10/05 00:28:48;;;;;;;7.65;2.13;;;;;;;;;;5072913;28;20041;-86
2022/10/05 00:31:20;;;;;;;7.03;2.30;;;;;;;;;;5072760;28;20044;-85
2022/10/05 00:33:47;;;;;;;3.53;1.88;;;;;;;;;;5055459;28;20048;-86
2022/10/05 00:36:15;;;;;;;10.05;2.90;;;;;;;;;;5072915;28;20045;-86
2022/10/05 00:38:42;;;;;;;2.97;2.10;;;;;;;;;;5055091;28;20071;-85
2022/10/05 00:41:12;;;;;;;4.32;1.98;;;;;;;;;;5055055;28;20070;-85
2022/10/05 00:43:52;;;;;;;5.63;2.25;;;;;;;;;;5072642;28;20052;-84
2022/10/05 00:46:26;;;;;;;3.17;2.10;;;;;;;;;;5072420;28;20057;-85
2022/10/05 00:49:02;;;;;;;6.55;2.67;;;;;;;;;;5072720;28;20049;-85
2022/10/05 00:51:30;;;;;;;4.75;2.60;;;;;;;;;;5072347;28;20048;-85
2022/10/05 00:54:38;;;;;;;3.75;2.33;;;;;;;;;;5055538;28;20565;-85
2022/10/05 00:57:05;;;;;;;13.85;2.47;;;;;;;;;;5010937;28;20057;-85
2022/10/05 00:59:44;;;;;;;6.13;2.92;;;;;;;;;;4994605;28;20057;-86
2022/10/05 01:02:14;;;;;;;6.65;3.00;;;;;;;;;;5029030;28;20053;-85
2022/10/05 01:04:48;;;;;;;11.43;3.47;;;;;;;;;;5054995;28;20041;-85
2022/10/05 01:07:42;;;;;;;8.00;3.40;;;;;;;;;;5072595;28;20049;-85
2022/10/05 01:10:18;;;;;;;14.45;3.53;;;;;;;;;;5032670;28;20048;-86
2022/10/05 01:12:57;;;;;;;10.85;3.60;;;;;;;;;;5054986;28;20471;-85
2022/10/05 01:15:25;;;;;;;11.50;3.20;;;;;;;;;;5072432;28;20059;-85
2022/10/05 01:17:55;;;;;;;10.27;3.42;;;;;;;;;;5054697;28;20051;-85
2022/10/05 01:20:43;;;;;;;5.97;3.70;;;;;;;;;;5072377;28;20127;-85
2022/10/05 01:23:10;;;;;;;11.20;4.10;;;;;;;;;;5058315;28;20512;-85
2022/10/05 01:25:45;;;;;;;9.35;4.30;;;;;;;;;;5075764;28;20511;-84
2022/10/05 01:28:35;;;;;;;7.32;4.72;;;;;;;;;;5075901;28;20052;-87
2022/10/05 01:31:12;;;;;;;8.85;4.00;;;;;;;;;;5068391;28;20500;-85
2022/10/05 01:33:43;;;;;;;6.53;3.50;;;;;;;;;;5075955;28;20085;-85
2022/10/05 01:36:16;;;;;;;10.52;3.85;;;;;;;;;;5075647;28;20147;-84
2022/10/05 01:38:58;;;;;;;12.77;3.38;;;;;;;;;;5075759;28;20606;-85
2022/10/05 01:41:33;;;;;;;10.43;4.00;;;;;;;;;;5075337;28;20067;-85
2022/10/05 01:44:05;;;;;;;10.40;3.50;;;;;;;;;;5075527;28;20063;-86
2022/10/05 01:46:41;;;;;;;12.55;4.30;;;;;;;;;;5057742;28;20045;-85
2022/10/05 01:49:27;;;;;;;9.13;4.10;;;;;;;;;;5058079;28;20053;-84
2022/10/05 01:52:13;;;;;;;9.50;3.88;;;;;;;;;;5057819;28;20075;-85
2022/10/05 01:54:56;;;;;;;12.77;4.55;;;;;;;;;;5057401;28;20052;-84
2022/10/05 01:57:42;;;;;;;7.95;3.53;;;;;;;;;;5057698;28;20489;-86
2022/10/05 02:00:13;;;;;;;6.15;3.92;;;;;;;;;;5056029;28;20052;-84
2022/10/05 02:02:52;;;;;;;6.05;3.33;;;;;;;;;;5057641;28;20052;-90
2022/10/05 02:05:40;;;;;;;6.38;3.08;;;;;;;;;;5074942;28;20074;-85
2022/10/05 02:08:14;;;;;;;6.70;3.03;;;;;;;;;;5057412;28;20044;-85
2022/10/05 02:10:45;;;;;;;9.35;2.92;;;;;;;;;;5057297;28;20060;-84
2022/10/05 02:13:23;;;;;;;3.35;2.47;;;;;;;;;;5057500;28;20055;-85
2022/10/05 02:15:57;;;;;;;7.45;3.05;;;;;;;;;;5057378;28;20063;-85
2022/10/05 02:18:28;;;;;;;7.75;2.78;;;;;;;;;;5057277;28;20048;-85
2022/10/05 02:20:56;;;;;;;5.28;2.83;;;;;;;;;;5057594;28;20052;-86
2022/10/05 02:23:25;;;;;;;6.53;2.90;;;;;;;;;;5074949;28;20049;-85
2022/10/05 02:25:54;;;;;;;6.15;2.60;;;;;;;;;;5075237;28;20136;-86
2022/10/05 02:28:36;;;;;;;6.43;2.40;;;;;;;;;;5074666;28;20040;-86
2022/10/05 02:31:14;;;;;;;3.35;2.67;;;;;;;;;;5074872;28;20095;-86
2022/10/05 02:33:41;;;;;;;5.47;2.90;;;;;;;;;;5057041;28;20113;-85
2022/10/05 02:36:22;;;;;;;4.85;2.42;;;;;;;;;;5056901;28;20052;-86
2022/10/05 02:39:09;;;;;;;3.67;2.65;;;;;;;;;;5057169;28;20052;-86
2022/10/05 02:41:46;;;;;;;5.85;3.00;;;;;;;;;;5074530;28;20139;-85
2022/10/05 02:44:33;;;;;;;7.03;2.72;;;;;;;;;;5074348;28;20127;-85
2022/10/05 02:47:00;;;;;;;4.15;2.70;;;;;;;;;;5057191;28;20048;-85
2022/10/05 02:49:36;;;;;;;6.45;2.95;;;;;;;;;;5056743;28;20057;-85
2022/10/05 02:52:09;;;;;;;4.75;3.30;;;;;;;;;;5056886;28;20048;-85
2022/10/05 02:54:45;;;;;;;6.95;3.13;;;;;;;;;;5074221;28;20484;-85
2022/10/05 02:57:12;;;;;;;6.88;3.60;;;;;;;;;;5074253;28;20052;-86
2022/10/05 02:59:43;;;;;;;7.25;3.30;;;;;;;;;;5056563;28;20149;-85
2022/10/05 03:02:18;;;;;;;5.35;3.03;;;;;;;;;;5056561;28;20053;-84
2022/10/05 03:04:51;;;;;;;5.05;3.67;;;;;;;;;;5056449;28;20052;-85
2022/10/05 03:07:28;;;;;;;5.47;3.22;;;;;;;;;;5056329;28;20056;-85
2022/10/05 03:09:55;;;;;;;7.38;3.20;;;;;;;;;;5056649;28;20053;-85
2022/10/05 03:12:27;;;;;;;4.40;3.15;;;;;;;;;;5074013;28;20139;-85
2022/10/05 03:15:02;;;;;;;6.00;3.40;;;;;;;;;;5056100;28;20048;-84
2022/10/05 03:17:49;;;;;;;5.40;3.03;;;;;;;;;;5073910;28;20429;-85
2022/10/05 03:20:35;;;;;;;9.70;4.18;;;;;;;;;;5073988;28;20052;-85
2022/10/05 03:23:04;;;;;;;10.02;5.43;;;;;;;;;;5073958;28;20135;-86
2022/10/05 03:25:31;;;;;;;9.02;4.45;;;;;;;;;;5055991;28;20485;-84
2022/10/05 03:27:58;;;;;;;7.57;4.82;;;;;;;;;;5056222;28;20412;-86
2022/10/05 03:30:29;;;;;;;7.28;4.68;;;;;;;;;;5055926;28;20091;-85
2022/10/05 03:33:03;;;;;;;5.47;4.40;;;;;;;;;;5056482;28;20083;-86
2022/10/05 03:35:33;;;;;;;8.55;4.45;;;;;;;;;;5055926;28;20045;-85
2022/10/05 03:38:26;;;;;;;6.25;4.35;;;;;;;;;;5056221;28;20481;-85
2022/10/05 03:40:56;;;;;;;4.35;3.95;;;;;;;;;;5055945;28;20067;-85
2022/10/05 03:43:23;;;;;;;11.00;3.80;;;;;;;;;;5055249;28;20041;-86
2022/10/05 03:46:05;;;;;;;10.13;3.78;;;;;;;;;;5055548;28;20056;-85
2022/10/05 03:48:39;;;;;;;6.95;3.53;;;;;;;;;;5055691;28;20048;-86
2022/10/05 03:51:12;;;;;;;9.85;4.05;;;;;;;;;;5073616;28;20052;-85
2022/10/05 03:53:48;;;;;;;6.67;3.70;;;;;;;;;;5055633;28;20048;-85
2022/10/05 03:56:34;;;;;;;7.88;4.22;;;;;;;;;;5055963;28;20139;-86
2022/10/05 03:59:13;;;;;;;5.90;3.90;;;;;;;;;;5073670;28;20063;-85
2022/10/05 04:01:47;;;;;;;7.97;4.20;;;;;;;;;;5073206;28;20381;-85
2022/10/05 04:04:19;;;;;;;5.80;4.28;;;;;;;;;;5055704;28;20048;-85
2022/10/05 04:06:48;;;;;;;6.53;3.53;;;;;;;;;;5073507;28;20083;-86
2022/10/05 04:09:18;;;;;;;5.75;3.58;;;;;;;;;;5073411;28;20044;-86
2022/10/05 04:11:52;;;;;;;4.55;3.78;;;;;;;;;;5073291;28;20044;-85
2022/10/05 04:14:33;;;;;;;9.05;4.57;;;;;;;;;;5055392;28;20087;-85
2022/10/05 04:17:04;;;;;;;6.90;4.53;;;;;;;;;;5051313;28;20049;-86
2022/10/05 04:19:31;;;;;;;8.82;4.93;;;;;;;;;;5073124;28;20063;-86
2022/10/05 04:22:11;;;;;;;9.95;4.55;;;;;;;;;;5073070;28;20452;-85
2022/10/05 04:25:11;;;;;;;12.00;5.90;;;;;;;;;;5072960;28;20523;-85
2022/10/05 04:27:41;;;;;;;12.57;7.70;;;;;;;;;;5040052;28;20059;-86
2022/10/05 04:30:16;;;;;;;14.45;8.65;;;;;;;;;;5073389;28;20049;-85
2022/10/05 04:32:47;;;;;;;16.02;9.20;;;;;;;;;;5055205;28;20063;-84
2022/10/05 04:35:34;;;;;;;10.43;6.95;;;;;;;;;;5054941;28;20071;-86
2022/10/05 04:38:08;;;;;;;14.07;7.25;;;;;;;;;;5045213;28;20052;-86
2022/10/05 04:40:53;;;;;;;12.27;6.65;;;;;;;;;;5055039;28;20052;-86
2022/10/05 04:43:40;;;;;;;16.02;6.13;;;;;;;;;;5055351;28;20057;-86
2022/10/05 04:46:24;;;;;;;9.68;5.93;;;;;;;;;;5054641;28;20048;-85
2022/10/05 04:48:51;;;;;;;11.95;6.05;;;;;;;;;;5055393;28;20049;-86
2022/10/05 04:51:21;;;;;;;12.20;7.07;;;;;;;;;;5055088;28;20051;-85
2022/10/05 04:53:58;;;;;;;17.83;7.05;;;;;;;;;;5072799;28;20048;-85
2022/10/05 04:56:33;;;;;;;15.13;7.40;;;;;;;;;;5058262;28;20052;-86
2022/10/05 04:59:21;;;;;;;17.42;8.35;;;;;;;;;;5059163;28;20049;-85
2022/10/05 05:02:06;;;;;;;15.75;7.93;;;;;;;;;;5058482;28;20048;-86
2022/10/05 05:04:34;;;;;;;11.88;7.05;;;;;;;;;;5058671;28;20048;-86
2022/10/05 05:07:01;;;;;;;13.77;6.95;;;;;;;;;;5058760;28;20060;-86
2022/10/05 05:09:47;;;;;;;10.68;7.03;;;;;;;;;;5059335;28;20041;-86
2022/10/05 05:12:26;;;;;;;7.30;5.97;;;;;;;;;;5058604;28;20048;-86
2022/10/05 05:15:11;;;;;;;7.95;5.90;;;;;;;;;;5058471;28;20051;-87
2022/10/05 05:17:46;;;;;;;10.95;6.45;;;;;;;;;;5058383;28;20048;-86
2022/10/05 05:20:20;;;;;;;12.95;6.15;;;;;;;;;;5058809;28;20044;-86
2022/10/05 05:23:01;;;;;;;11.60;6.30;;;;;;;;;;5076095;28;20057;-86
2022/10/05 05:25:31;;;;;;;8.35;6.10;;;;;;;;;;5076158;28;20044;-86
2022/10/05 05:28:17;;;;;;;9.60;6.10;;;;;;;;;;5058550;28;20048;-87
2022/10/05 05:31:05;;;;;;;10.75;6.70;;;;;;;;;;5058638;28;20040;-85
2022/10/05 05:33:40;;;;;;;11.73;8.70;;;;;;;;;;5058342;28;20059;-86
2022/10/05 05:36:10;;;;;;;21.45;9.65;;;;;;;;;;5058386;28;20508;-86
2022/10/05 05:38:45;;;;;;;15.82;9.05;;;;;;;;;;5058242;28;20052;-87
2022/10/05 05:41:15;;;;;;;17.83;8.93;;;;;;;;;;5058014;28;20135;-86
2022/10/05 05:44:03;;;;;;;16.13;9.05;;;;;;;;;;5075855;28;20048;-86
2022/10/05 05:46:40;;;;;;;20.60;10.05;;;;;;;;;;5075806;28;20602;-86
2022/10/05 05:49:43;;;;;;;20.00;9.45;;;;;;;;;;5075543;28;20075;-86
2022/10/05 05:52:14;;;;;;;18.08;9.02;;;;;;;;;;5075584;28;20052;-85
2022/10/05 05:54:44;;;;;;;20.52;10.65;;;;;;;;;;5057844;28;20059;-87
2022/10/05 05:57:11;;;;;;;18.35;10.48;;;;;;;;;;5058068;28;20401;-86
2022/10/05 05:59:41;;;;;;;27.42;12.10;;;;;;;;;;5058096;28;20049;-86
2022/10/05 06:02:11;;;;;;;33.85;11.43;;;;;;;;;;5057907;28;20048;-86
2022/10/05 06:04:43;;;;;;;23.33;10.65;;;;;;;;;;5075236;28;20051;-86
2022/10/05 06:07:15;;;;;;;35.37;12.57;;;;;;;;;;5057194;28;20056;-86
2022/10/05 06:09:46;;;;;;;21.33;10.88;;;;;;;;;;5075681;28;20495;-86
2022/10/05 06:12:19;;;;;;;32.22;12.63;;;;;;;;;;5075433;28;20048;-86
2022/10/05 06:15:04;;;;;;;36.93;12.83;;;;;;;;;;5075317;28;20048;-86
2022/10/05 06:17:34;;;;;;;34.53;12.40;;;;;;;;;;5075730;28;20053;-87
2022/10/05 06:20:02;;;;;;;44.75;14.40;;;;;;;;;;5075227;28;20048;-86
2022/10/05 06:22:41;;;;;;;48.17;13.35;;;;;;;;;;5075080;28;20063;-86
2022/10/05 06:25:11;;;;;;;53.90;15.32;;;;;;;;;;5057458;28;20049;-86
2022/10/05 06:27:57;;;;;;;76.55;15.63;;;;;;;;;;5057403;28;20044;-86
2022/10/05 06:30:25;;;;;;;46.42;16.60;;;;;;;;;;5075061;28;20048;-86
2022/10/05 06:33:01;;;;;;;48.67;13.98;;;;;;;;;;5075273;28;20060;-86
2022/10/05 06:35:52;;;;;;;46.45;14.43;;;;;;;;;;5075174;28;20052;-86
2022/10/05 06:38:19;;;;;;;54.05;14.90;;;;;;;;;;5075119;28;20048;-86
2022/10/05 06:40:54;;;;;;;46.70;12.95;;;;;;;;;;5075100;28;20459;-86
2022/10/05 06:43:30;;;;;;;48.70;13.63;;;;;;;;;;5057493;28;20055;-87
2022/10/05 06:46:06;;;;;;;41.55;13.85;;;;;;;;;;5074885;28;20112;-87
2022/10/05 06:48:59;;;;;;;44.20;15.05;;;;;;;;;;5056802;28;20048;-86
2022/10/05 06:51:33;;;;;;;35.08;15.38;;;;;;;;;;5074717;28;20175;-87
2022/10/05 06:54:16;;;;;;;41.90;13.73;;;;;;;;;;5057290;28;20044;-85
2022/10/05 06:56:43;;;;;;;41.15;15.13;;;;;;;;;;5074276;28;20052;-87
2022/10/05 06:59:24;;;;;;;20.23;10.85;;;;;;;;;;5056849;28;20201;-86
2022/10/05 07:01:59;;;;;;;28.90;13.25;;;;;;;;;;5056760;28;20048;-88
2022/10/05 07:04:40;;;;;;;27.35;11.38;;;;;;;;;;5074361;28;20127;-87
2022/10/05 07:07:13;;;;;;;18.67;9.57;;;;;;;;;;5056657;28;20480;-86
2022/10/05 07:09:45;;;;;;;19.58;10.88;;;;;;;;;;5056552;28;20052;-87
2022/10/05 07:12:21;;;;;;;12.45;8.73;;;;;;;;;;5056879;28;20454;-86
2022/10/05 07:14:55;;;;;;;14.13;9.73;;;;;;;;;;5056584;28;20139;-86
2022/10/05 07:17:34;;;;;;;13.48;8.55;;;;;;;;;;5073989;28;20493;-87
2022/10/05 07:20:08;;;;;;;12.13;8.10;;;;;;;;;;5056446;28;20056;-87
2022/10/05 07:22:54;;;;;;;11.27;6.80;;;;;;;;;;5056516;28;20075;-86
2022/10/05 07:25:21;;;;;;;13.13;8.05;;;;;;;;;;5073692;28;20044;-85
2022/10/05 07:27:52;;;;;;;7.43;5.10;;;;;;;;;;5056474;28;20485;-86
2022/10/05 07:30:19;;;;;;;10.75;5.57;;;;;;;;;;5056213;28;20394;-85
2022/10/05 07:32:58;;;;;;;5.82;4.82;;;;;;;;;;5073654;28;20052;-89
2022/10/05 07:38:31;;;;;;;8.80;4.10;;;;;;;;;;5073543;28;20050;-87
2022/10/05 07:41:01;;;;;;;4.07;3.63;;;;;;;;;;5056136;28;20071;-86
2022/10/05 07:43:48;;;;;;;8.07;3.97;;;;;;;;;;5056200;28;20045;-87
2022/10/05 07:46:42;;;;;;;5.47;3.08;;;;;;;;;;5071742;28;20052;-88
2022/10/05 07:49:17;;;;;;;6.00;2.80;;;;;;;;;;5055971;28;20464;-87
2022/10/05 07:51:52;;;;;;;5.93;2.85;;;;;;;;;;5056248;28;20048;-87
2022/10/05 07:54:28;;;;;;;5.07;2.93;;;;;;;;;;5074011;28;20044;-88
2022/10/05 07:57:09;;;;;;;6.10;2.70;;;;;;;;;;5056123;28;20470;-87
2022/10/05 07:59:47;;;;;;;6.07;2.85;;;;;;;;;;5054785;28;20044;-87
2022/10/05 08:02:27;;;;;;;4.13;2.55;;;;;;;;;;5056074;28;20052;-90
2022/10/05 08:05:24;;;;;;;4.95;2.70;;;;;;;;;;5055855;28;20070;-86
2022/10/05 08:07:56;;;;;;;10.02;3.78;;;;;;;;;;5046919;28;20052;-85
2022/10/05 08:10:23;;;;;;;5.20;2.70;;;;;;;;;;5055636;28;20523;-86
2022/10/05 08:12:56;;;;;;;6.25;3.58;;;;;;;;;;5073073;28;20052;-86
2022/10/05 08:15:53;;;;;;;6.40;2.90;;;;;;;;;;5073174;28;20140;-88
2022/10/05 08:18:39;;;;;;;2.33;2.05;;;;;;;;;;5060608;28;20594;-86
2022/10/05 08:21:10;;;;;;;3.10;2.33;;;;;;;;;;5055431;28;20548;-86
2022/10/05 08:23:43;;;;;;;3.80;2.03;;;;;;;;;;5055553;28;20058;-86
2022/10/05 08:26:29;;;;;;;4.40;2.28;;;;;;;;;;5055314;28;20131;-85
2022/10/05 08:29:15;;;;;;;4.70;2.08;;;;;;;;;;5055165;28;20052;-86
2022/10/05 08:31:45;;;;;;;6.35;2.45;;;;;;;;;;5076986;28;20076;-87
2022/10/05 08:34:23;;;;;;;2.80;2.05;;;;;;;;;;5059573;28;20048;-86
2022/10/05 08:37:00;;;;;;;2.25;1.70;;;;;;;;;;5059189;28;20052;-86
2022/10/05 08:39:30;;;;;;;2.95;1.90;;;;;;;;;;5076847;28;20052;-87
2022/10/05 08:42:15;;;;;;;1.95;1.83;;;;;;;;;;5076713;28;20052;-86
2022/10/05 08:45:01;;;;;;;2.38;2.10;;;;;;;;;;5058780;28;20345;-87
2022/10/05 08:47:47;;;;;;;2.80;2.20;;;;;;;;;;5059317;28;20060;-86
2022/10/05 08:50:14;;;;;;;5.85;2.70;;;;;;;;;;5076906;28;20488;-85
2022/10/05 08:52:45;;;;;;;5.00;2.40;;;;;;;;;;5058617;28;20055;-87
2022/10/05 08:55:22;;;;;;;3.40;2.42;;;;;;;;;;5059128;28;20044;-88
2022/10/05 08:58:02;;;;;;;2.83;2.63;;;;;;;;;;5076989;28;20480;-91
2022/10/05 09:00:32;;;;;;;2.65;2.45;;;;;;;;;;5076686;28;20114;-85
2022/10/05 09:03:17;;;;;;;4.10;2.97;;;;;;;;;;5076529;28;20079;-88
2022/10/05 09:06:03;;;;;;;3.40;2.42;;;;;;;;;;5076406;28;20507;-86
2022/10/05 09:08:47;;;;;;;4.00;2.88;;;;;;;;;;5058766;28;20060;-86
2022/10/05 09:11:33;;;;;;;3.63;2.90;;;;;;;;;;5076380;28;20044;-86
2022/10/05 09:14:26;;;;;;;6.38;2.83;;;;;;;;;;5058899;28;20052;-86
2022/10/05 09:17:17;;;;;;;3.47;2.60;;;;;;;;;;5076323;28;20067;-85
2022/10/05 09:19:51;;;;;;;3.58;2.88;;;;;;;;;;5058817;28;20049;-85
2022/10/05 09:22:37;;;;;;;7.30;3.60;;;;;;;;;;5058489;28;20045;-85
2022/10/05 09:25:15;;;;;;;7.03;4.90;;;;;;;;;;5058803;28;20063;-87
2022/10/05 09:27:52;;;;;;;5.45;4.10;;;;;;;;;;5058595;28;20047;-87
2022/10/05 09:30:36;;;;;;;4.65;3.03;;;;;;;;;;5059035;28;20110;-90
2022/10/05 09:33:03;;;;;;;;;;;;;;;;;;5058926;28;20048;-89
2022/10/05 09:35:45;;;;;;;3.88;2.20;;;;;;;;;;5058393;28;20383;-86
2022/10/05 09:38:19;;;;;;;2.80;2.20;;;;;;;;;;5058578;28;20052;-86
2022/10/05 09:40:53;;;;;;;32.05;3.47;;;;;;;;;;5058374;28;20045;-88
2022/10/05 09:43:23;;;;;;;2.33;2.10;;;;;;;;;;5057842;28;20055;-88
2022/10/05 09:46:09;;;;;;;3.15;2.08;;;;;;;;;;5058613;28;20052;-93
2022/10/05 09:48:50;;;;;;;2.13;1.55;;;;;;;;;;5058550;28;20537;-87
2022/10/05 09:51:42;;;;;;;5.22;4.03;;;;;;;;;;5058467;28;20420;-87
2022/10/05 09:54:32;;;;;;;5.20;2.47;;;;;;;;;;5075779;28;20060;-86
2022/10/05 09:57:35;;;;;;;3.65;2.03;;;;;;;;;;5058342;28;20053;-86
2022/10/05 10:00:14;;;;;;;4.05;1.90;;;;;;;;;;4997857;28;20136;-89
2022/10/05 10:03:04;;;;;;;3.95;1.75;;;;;;;;;;5051680;28;20060;-86
2022/10/05 10:05:48;;;;;;;2.92;1.90;;;;;;;;;;5058099;28;20056;-87
2022/10/05 10:08:35;;;;;;;1.50;1.40;;;;;;;;;;5058287;28;20048;-89
2022/10/05 10:11:15;;;;;;;1.80;1.70;;;;;;;;;;5057939;28;20056;-83
2022/10/05 10:14:11;;;;;;;4.18;2.00;;;;;;;;;;5058070;28;20472;-89
2022/10/05 10:16:57;;;;;;;4.53;1.70;;;;;;;;;;5045968;28;20052;-86
2022/10/05 10:19:51;;;;;;;5.85;2.03;;;;;;;;;;5058198;28;20098;-88
2022/10/05 10:22:24;;;;;;;4.55;2.10;;;;;;;;;;5052567;28;20047;-88
2022/10/05 10:24:54;;;;;;;5.20;1.90;;;;;;;;;;5057854;28;20048;-87
2022/10/05 10:27:26;;;;;;;9.63;2.25;;;;;;;;;;5058586;28;20295;-92
2022/10/05 10:29:56;;;;;;;26.80;3.67;;;;;;;;;;5057865;28;20492;-86
2022/10/05 10:32:41;;;;;;;14.15;2.40;;;;;;;;;;5058119;28;20056;-87
2022/10/05 10:35:27;;;;;;;5.03;2.03;;;;;;;;;;5057396;28;20056;-89
2022/10/05 10:38:21;;;;;;;7.82;1.88;;;;;;;;;;5057680;28;20695;-88
2022/10/05 10:40:51;;;;;;;6.72;2.00;;;;;;;;;;5057708;28;20056;-86
2022/10/05 10:43:38;;;;;;;5.43;2.20;;;;;;;;;;5057901;28;20059;-87
2022/10/05 10:46:16;;;;;;;12.70;2.20;;;;;;;;;;5057319;28;20108;-86
2022/10/05 10:49:00;;;;;;;5.95;2.17;;;;;;;;;;5058173;28;20119;-93
2022/10/05 10:51:39;;;;;;;2.10;2.00;;;;;;;;;;5057421;28;20057;-90
2022/10/05 10:54:15;;;;;;;2.28;2.03;;;;;;;;;;5057381;28;20511;-90
2022/10/05 10:56:46;;;;;;;7.88;2.20;;;;;;;;;;5058139;28;20062;-93
2022/10/05 10:59:22;;;;;;;4.55;2.13;;;;;;;;;;5057610;28;20131;-92
2022/10/05 11:02:14;;;;;;;3.65;2.22;;;;;;;;;;5058299;28;20049;-87
2022/10/05 11:04:52;;;;;;;3.70;2.25;;;;;;;;;;5057408;28;20489;-89
2022/10/05 11:07:19;;;;;;;7.85;2.08;;;;;;;;;;5057211;28;20060;-85
2022/10/05 11:09:55;;;;;;;3.30;2.33;;;;;;;;;;5057451;28;20447;-91
2022/10/05 11:12:40;;;;;;;2.97;2.40;;;;;;;;;;5057228;28;20058;-86
2022/10/05 11:15:24;;;;;;;1.92;1.83;;;;;;;;;;5057201;28;20063;-89
2022/10/05 11:18:10;;;;;;;3.17;2.08;;;;;;;;;;5074426;28;20044;-90
2022/10/05 11:20:56;;;;;;;3.35;2.20;;;;;;;;;;5057032;28;20057;-88
2022/10/05 11:23:31;;;;;;;3.13;1.85;;;;;;;;;;5056451;28;20063;-88
2022/10/05 11:26:14;;;;;;;3.50;2.10;;;;;;;;;;5057623;28;20044;-87
2022/10/05 11:28:41;;;;;;;2.90;1.83;;;;;;;;;;5074298;28;20063;-87
2022/10/05 11:31:29;;;;;;;17.52;2.50;;;;;;;;;;5056831;28;20048;-90
2022/10/05 11:34:12;;;;;;;2.13;1.70;;;;;;;;;;5056653;28;20131;-88
2022/10/05 11:36:59;;;;;;;2.28;1.65;;;;;;;;;;5056792;28;20051;-87
2022/10/05 11:39:42;;;;;;;5.85;2.30;;;;;;;;;;5056904;28;20048;-89
2022/10/05 11:42:15;;;;;;;3.37;1.43;;;;;;;;;;5055860;28;20420;-87
2022/10/05 11:45:00;;;;;;;2.15;1.95;;;;;;;;;;5056389;28;20060;-88
2022/10/05 11:47:28;;;;;;;2.72;1.90;;;;;;;;;;5057013;28;20060;-87
2022/10/05 11:50:04;;;;;;;6.43;2.30;;;;;;;;;;5056378;28;20449;-86
2022/10/05 11:52:49;;;;;;;2.08;1.65;;;;;;;;;;5056139;28;20054;-88
2022/10/05 11:55:18;;;;;;;2.40;1.63;;;;;;;;;;5073565;28;20506;-86
2022/10/05 11:57:48;;;;;;;1.83;1.50;;;;;;;;;;5073896;28;20048;-90
2022/10/05 12:00:20;;;;;;;2.45;1.60;;;;;;;;;;5056775;28;20075;-86
2022/10/05 12:02:51;;;;;;;3.45;1.40;;;;;;;;;;5055973;28;20432;-87
2022/10/05 12:05:22;;;;;;;1.67;1.58;;;;;;;;;;5055071;28;20127;-85
2022/10/05 12:07:49;;;;;;;5.18;1.50;;;;;;;;;;5073809;28;20048;-87
2022/10/05 12:10:20;;;;;;;14.25;1.80;;;;;;;;;;5056409;28;20405;-87
2022/10/05 12:12:54;;;;;;;2.00;1.83;;;;;;;;;;5055965;28;20049;-88
2022/10/05 12:15:26;;;;;;;2.97;1.58;;;;;;;;;;5055924;28;20048;-87
2022/10/05 12:18:07;;;;;;;5.60;1.80;;;;;;;;;;5056089;28;20053;-87
2022/10/05 12:20:45;;;;;;;3.95;1.55;;;;;;;;;;5056024;28;20513;-87
2022/10/05 12:23:33;;;;;;;5.43;1.80;;;;;;;;;;5056641;28;20079;-90
2022/10/05 12:26:03;;;;;;;2.25;1.40;;;;;;;;;;5049077;28;20473;-89
2022/10/05 12:28:53;;;;;;;3.10;1.65;;;;;;;;;;5055695;28;20056;-88
2022/10/05 12:31:20;;;;;;;3.25;1.40;;;;;;;;;;5048361;28;20055;-86
2022/10/05 12:33:53;;;;;;;3.13;1.88;;;;;;;;;;5056384;28;20484;-87
2022/10/05 12:36:26;;;;;;;1.95;1.80;;;;;;;;;;5055548;28;20048;-88
2022/10/05 12:39:13;;;;;;;2.75;1.98;;;;;;;;;;5057835;28;20053;-88
2022/10/05 12:41:40;;;;;;;;;;;;;;;;;;5057215;28;20056;-88
2022/10/05 12:44:25;;;;;;;3.22;1.80;;;;;;;;;;5055708;28;19927;-87
2022/10/05 12:47:10;;;;;;;1.63;1.52;;;;;;;;;;5055578;28;20144;-89
2022/10/05 12:49:37;;;;;;;4.20;2.00;;;;;;;;;;5073352;28;20563;-87
2022/10/05 12:52:05;;;;;;;2.83;2.20;;;;;;;;;;5056002;28;20052;-89
2022/10/05 12:54:44;;;;;;;2.55;1.80;;;;;;;;;;5055711;28;20049;-87
2022/10/05 12:57:30;;;;;;;4.15;1.63;;;;;;;;;;5073363;28;20052;-89
2022/10/05 13:00:04;;;;;;;2.17;1.67;;;;;;;;;;5055403;28;20045;-89
2022/10/05 13:02:41;;;;;;;1.75;1.65;;;;;;;;;;5055764;28;20079;-87
2022/10/05 13:05:08;;;;;;;6.00;1.65;;;;;;;;;;5055751;28;20049;-89
2022/10/05 13:07:44;;;;;;;4.18;2.22;;;;;;;;;;5055798;28;20061;-88
2022/10/05 13:10:21;;;;;;;4.10;2.03;;;;;;;;;;5055709;28;20063;-87
2022/10/05 13:12:51;;;;;;;1.65;1.55;;;;;;;;;;5055494;28;20052;-88
2022/10/05 13:15:22;;;;;;;2.42;1.65;;;;;;;;;;5055667;28;20050;-88
2022/10/05 13:17:49;;;;;;;3.53;1.52;;;;;;;;;;5059223;28;20070;-89
2022/10/05 13:20:22;;;;;;;4.30;1.55;;;;;;;;;;5059199;28;20048;-89
2022/10/05 13:22:58;;;;;;;2.05;1.48;;;;;;;;;;5059211;28;20488;-87
2022/10/05 13:25:49;;;;;;;2.67;1.90;;;;;;;;;;5059297;28;20045;-88
2022/10/05 13:28:19;;;;;;;2.60;1.50;;;;;;;;;;5031455;28;20512;-86
2022/10/05 13:30:51;;;;;;;1.65;1.55;;;;;;;;;;5058783;28;20045;-89
2022/10/05 13:33:18;;;;;;;2.80;1.85;;;;;;;;;;5058989;28;20047;-87
2022/10/05 13:35:45;;;;;;;3.28;1.38;;;;;;;;;;5076525;28;20052;-88
2022/10/05 13:38:33;;;;;;;2.25;1.40;;;;;;;;;;5076594;28;20047;-88
2022/10/05 13:41:19;;;;;;;1.67;1.40;;;;;;;;;;5076569;28;20144;-91
2022/10/05 13:43:51;;;;;;;4.00;1.73;;;;;;;;;;5058640;28;20045;-89
2022/10/05 13:46:27;;;;;;;1.88;1.77;;;;;;;;;;5058655;28;20099;-89
2022/10/05 13:49:04;;;;;;;1.85;1.42;;;;;;;;;;5058689;28;20053;-87
2022/10/05 13:51:44;;;;;;;2.22;1.95;;;;;;;;;;5058881;28;20063;-87
2022/10/05 13:54:17;;;;;;;2.05;1.50;;;;;;;;;;5058614;28;20143;-88
2022/10/05 13:56:45;;;;;;;7.07;1.65;;;;;;;;;;5058807;28;20048;-87
2022/10/05 13:59:31;;;;;;;3.67;1.45;;;;;;;;;;5057176;28;20048;-88
2022/10/05 14:02:08;;;;;;;5.32;1.50;;;;;;;;;;5058479;28;20108;-88
2022/10/05 14:04:52;;;;;;;2.67;1.63;;;;;;;;;;5076014;28;20118;-88
2022/10/05 14:07:23;;;;;;;3.28;1.23;;;;;;;;;;5058283;28;20055;-90
2022/10/05 14:09:50;;;;;;;2.80;1.42;;;;;;;;;;5075597;28;20045;-88
2022/10/05 14:12:22;;;;;;;6.47;1.90;;;;;;;;;;5057783;28;20398;-90
2022/10/05 14:14:51;;;;;;;2.65;1.67;;;;;;;;;;5075665;28;20063;-90
2022/10/05 14:17:33;;;;;;;3.45;1.52;;;;;;;;;;5057787;28;20044;-90
2022/10/05 14:20:02;;;;;;;1.50;1.40;;;;;;;;;;5058104;28;20054;-89
2022/10/05 14:22:29;;;;;;;5.22;2.92;;;;;;;;;;5058056;28;20048;-88
2022/10/05 14:24:56;;;;;;;3.65;1.38;;;;;;;;;;5057832;28;20416;-89
2022/10/05 14:27:25;;;;;;;3.72;1.52;;;;;;;;;;5074762;28;20045;-87
2022/10/05 14:29:58;;;;;;;2.15;1.23;;;;;;;;;;5074923;28;20053;-87
2022/10/05 14:32:29;;;;;;;7.07;1.50;;;;;;;;;;5057593;28;20044;-87
2022/10/05 14:35:04;;;;;;;2.17;1.52;;;;;;;;;;5057795;28;20048;-92
2022/10/05 14:37:32;;;;;;;3.42;1.60;;;;;;;;;;5075274;28;20052;-86
2022/10/05 14:40:21;;;;;;;3.17;1.50;;;;;;;;;;5057580;28;20159;-87
2022/10/05 14:42:49;;;;;;;1.45;1.33;;;;;;;;;;5057342;28;20135;-91
2022/10/05 14:45:20;;;;;;;4.82;1.58;;;;;;;;;;5074653;28;20052;-88
2022/10/05 14:47:50;;;;;;;1.52;1.00;;;;;;;;;;5056953;28;20053;-86
2022/10/05 14:50:20;;;;;;;2.70;1.20;;;;;;;;;;5056828;28;20041;-87
2022/10/05 14:53:02;;;;;;;1.83;1.70;;;;;;;;;;5056899;28;20467;-88
2022/10/05 14:55:36;;;;;;;3.63;0.93;;;;;;;;;;5057285;28;20060;-85
2022/10/05 14:58:03;;;;;;;;;;;;;;;;;;5057621;28;20127;-87
2022/10/05 15:00:32;;;;;;;1.67;1.30;;;;;;;;;;5074705;28;19924;-88
2022/10/05 15:03:03;;;;;;;4.30;1.50;;;;;;;;;;5056870;28;20048;-89
2022/10/05 15:05:30;;;;;;;1.42;1.20;;;;;;;;;;5056980;28;20080;-90
2022/10/05 15:08:06;;;;;;;5.22;1.10;;;;;;;;;;5057076;28;20040;-89
2022/10/05 15:10:36;;;;;;;4.22;1.20;;;;;;;;;;5056680;28;20059;-87
2022/10/05 15:13:09;;;;;;;1.20;1.10;;;;;;;;;;5056882;28;20055;-88
2022/10/05 15:15:44;;;;;;;2.10;1.17;;;;;;;;;;5057073;28;20052;-86
2022/10/05 15:18:20;;;;;;;2.35;1.48;;;;;;;;;;5057173;28;20044;-91
2022/10/05 15:21:05;;;;;;;2.25;1.58;;;;;;;;;;5056766;28;20511;-86
2022/10/05 15:23:38;;;;;;;1.95;1.13;;;;;;;;;;5056727;28;20417;-87
2022/10/05 15:26:28;;;;;;;1.53;1.27;;;;;;;;;;5056675;28;20063;-87
2022/10/05 15:29:07;;;;;;;1.63;1.20;;;;;;;;;;5057130;28;20045;-88
2022/10/05 15:31:35;;;;;;;6.68;2.25;;;;;;;;;;5056336;28;20060;-89
2022/10/05 15:34:06;;;;;;;2.03;1.50;;;;;;;;;;5056695;28;20048;-91
2022/10/05 15:36:41;;;;;;;4.95;1.45;;;;;;;;;;5073781;28;20063;-88
2022/10/05 15:39:25;;;;;;;2.10;1.83;;;;;;;;;;5055452;28;20058;-87